TimePDT,TemperatureF,Dew PointF,Humidity,Sea Level PressureIn,VisibilityMPH,Wind Direction,Wind SpeedMPH,Gust SpeedMPH,PrecipitationIn,Events,Conditions,WindDirDegrees,DateUTC
12:36 AM,62.6,53.6,72,30.12,10.0,North,3.5,-,N/A,,Mostly Cloudy,350,2013-05-09 07:36:00
12:51 AM,62.1,54.0,75,30.12,10.0,North,3.5,-,N/A,,Mostly Cloudy,350,2013-05-09 07:51:00
1:51 AM,62.1,54.0,75,30.12,10.0,WNW,4.6,-,N/A,,Mostly Cloudy,290,2013-05-09 08:51:00
2:51 AM,62.1,54.0,75,30.11,10.0,WNW,3.5,-,N/A,,Overcast,300,2013-05-09 09:51:00
3:51 AM,62.1,54.0,75,30.11,10.0,West,3.5,-,N/A,,Overcast,280,2013-05-09 10:51:00
4:51 AM,61.0,54.0,78,30.10,10.0,Calm,Calm,-,N/A,,Scattered Clouds,0,2013-05-09 11:51:00
5:51 AM,61.0,54.0,78,30.09,10.0,NNE,3.5,-,N/A,,Mostly Cloudy,30,2013-05-09 12:51:00
6:22 AM,60.8,53.6,77,30.10,10.0,Calm,Calm,-,N/A,,Mostly Cloudy,0,2013-05-09 13:22:00
6:51 AM,62.1,53.1,72,30.10,10.0,NW,3.5,-,N/A,,Mostly Cloudy,320,2013-05-09 13:51:00
7:51 AM,63.0,52.0,67,30.10,10.0,West,5.8,-,N/A,,Mostly Cloudy,270,2013-05-09 14:51:00
8:47 AM,62.6,53.6,72,30.11,10.0,NW,4.6,-,N/A,,Mostly Cloudy,310,2013-05-09 15:47:00
8:51 AM,63.0,52.0,67,30.11,10.0,WNW,8.1,-,N/A,,Mostly Cloudy,290,2013-05-09 15:51:00
9:51 AM,64.9,52.0,63,30.11,10.0,NW,6.9,20.7,N/A,,Mostly Cloudy,310,2013-05-09 16:51:00
10:51 AM,64.9,52.0,63,30.12,10.0,WNW,10.4,-,N/A,,Mostly Cloudy,300,2013-05-09 17:51:00
11:51 AM,66.0,51.1,59,30.12,10.0,WSW,6.9,-,N/A,,Mostly Cloudy,250,2013-05-09 18:51:00
12:51 PM,66.9,51.1,57,30.11,10.0,West,12.7,16.1,N/A,,Scattered Clouds,260,2013-05-09 19:51:00
1:51 PM,66.9,51.1,57,30.10,10.0,West,13.8,-,N/A,,Scattered Clouds,260,2013-05-09 20:51:00
2:51 PM,66.9,51.1,57,30.09,10.0,West,12.7,-,N/A,,Scattered Clouds,280,2013-05-09 21:51:00
3:51 PM,64.9,51.1,61,30.08,10.0,WNW,8.1,-,N/A,,Scattered Clouds,290,2013-05-09 22:51:00
4:51 PM,66.0,51.1,59,30.08,10.0,West,9.2,-,N/A,,Mostly Cloudy,270,2013-05-09 23:51:00
5:40 PM,64.4,51.8,64,30.08,10.0,West,9.2,-,N/A,,Mostly Cloudy,280,2013-05-10 00:40:00
5:51 PM,64.9,51.1,61,30.08,10.0,West,9.2,-,N/A,,Mostly Cloudy,280,2013-05-10 00:51:00
6:51 PM,63.0,52.0,67,30.08,10.0,Variable,4.6,-,N/A,,Mostly Cloudy,0,2013-05-10 01:51:00
7:51 PM,63.0,52.0,67,30.09,10.0,West,5.8,-,N/A,,Mostly Cloudy,280,2013-05-10 02:51:00
8:18 PM,62.6,51.8,68,30.09,10.0,WNW,6.9,-,N/A,,Mostly Cloudy,300,2013-05-10 03:18:00
8:51 PM,62.1,52.0,70,30.09,10.0,West,4.6,-,N/A,,Scattered Clouds,280,2013-05-10 03:51:00
9:21 PM,62.6,51.8,68,30.10,10.0,NW,4.6,-,N/A,,Mostly Cloudy,310,2013-05-10 04:21:00
9:44 PM,62.6,51.8,68,30.10,10.0,Calm,Calm,-,N/A,,Mostly Cloudy,0,2013-05-10 04:44:00
9:51 PM,62.1,52.0,70,30.10,10.0,Calm,Calm,-,N/A,,Mostly Cloudy,0,2013-05-10 04:51:00
10:51 PM,62.1,52.0,70,30.09,10.0,WNW,3.5,-,N/A,,Mostly Cloudy,290,2013-05-10 05:51:00
11:35 PM,62.6,51.8,68,30.11,10.0,NW,6.9,-,N/A,,Mostly Cloudy,310,2013-05-10 06:35:00
11:51 PM,62.1,52.0,70,30.10,10.0,WNW,5.8,-,N/A,,Mostly Cloudy,290,2013-05-10 06:51:00